createdAt,value
2022-12-03T00:00:16.303Z,102285.78
2022-12-03T00:02:44.614Z,102281.50
2022-12-03T00:05:12.806Z,102276.28
2022-12-03T00:07:41.341Z,102271.97
2022-12-03T00:10:13.889Z,102262.41
2022-12-03T00:12:43.344Z,102266.78
2022-12-03T00:15:12.334Z,102259.81
2022-12-03T00:17:40.397Z,102263.28
2022-12-03T00:20:10.144Z,102265.88
2022-12-03T00:22:40.464Z,102262.41
2022-12-03T00:25:11.122Z,102271.97
2022-12-03T00:27:39.211Z,102270.22
2022-12-03T00:30:10.842Z,102259.84
2022-12-03T00:32:38.987Z,102264.13
2022-12-03T00:35:07.952Z,102262.41
2022-12-03T00:37:35.956Z,102257.25
2022-12-03T00:40:04.615Z,102252.94
2022-12-03T00:42:32.724Z,102252.94
2022-12-03T00:45:01.504Z,102252.06
2022-12-03T00:47:30.944Z,102250.34
2022-12-03T00:49:59.071Z,102253.78
2022-12-03T00:52:28.424Z,102244.28
2022-12-03T00:54:56.644Z,102246.88
2022-12-03T00:57:24.814Z,102250.34
2022-12-03T00:59:53.131Z,102246.00
2022-12-03T01:02:21.236Z,102255.53
2022-12-03T01:04:51.015Z,102252.03
2022-12-03T01:07:19.453Z,102252.94
2022-12-03T01:09:48.624Z,102257.25
2022-12-03T01:12:16.773Z,102252.94
2022-12-03T01:14:44.985Z,102243.44
2022-12-03T01:17:13.539Z,102242.56
2022-12-03T01:19:47.846Z,102249.50
2022-12-03T01:22:17.593Z,102248.59
2022-12-03T01:24:45.799Z,102249.47
2022-12-03T01:27:13.925Z,102246.84
2022-12-03T01:29:42.121Z,102239.09
2022-12-03T01:32:19.725Z,102233.09
2022-12-03T01:34:49.434Z,102245.97
2022-12-03T01:37:20.303Z,102239.94
2022-12-03T01:39:48.584Z,102239.97
2022-12-03T01:42:19.817Z,102239.97
2022-12-03T01:44:49.168Z,102237.38
2022-12-03T01:47:19.108Z,102226.13
2022-12-03T01:49:51.867Z,102235.63
2022-12-03T01:52:23.805Z,102233.03
2022-12-03T01:54:55.715Z,102226.09
2022-12-03T01:57:27.473Z,102234.72
2022-12-03T01:59:57.281Z,102225.28
2022-12-03T02:02:27.270Z,102227.00
2022-12-03T02:04:55.814Z,102230.41
2022-12-03T02:07:28.958Z,102231.25
2022-12-03T02:09:59.571Z,102225.22
2022-12-03T02:12:31.169Z,102230.44
2022-12-03T02:14:59.667Z,102225.25
2022-12-03T02:17:28.392Z,102226.06
2022-12-03T02:19:57.361Z,102226.97
2022-12-03T02:22:36.211Z,102224.31
2022-12-03T02:25:12.851Z,102221.69
2022-12-03T02:27:41.685Z,102227.81
2022-12-03T02:30:11.102Z,102226.06
2022-12-03T02:32:39.848Z,102226.94
2022-12-03T02:35:13.693Z,102229.53
2022-12-03T02:37:43.376Z,102218.34
2022-12-03T02:40:18.180Z,102222.66
2022-12-03T02:42:46.956Z,102222.63
2022-12-03T02:45:20.025Z,102215.72
2022-12-03T02:47:51.597Z,102214.84
2022-12-03T02:50:23.082Z,102221.78
2022-12-03T02:52:54.918Z,102211.41
2022-12-03T02:55:25.313Z,102214.00
2022-12-03T02:57:53.826Z,102208.81
2022-12-03T03:00:23.038Z,102216.56
2022-12-03T03:02:51.827Z,102216.59
2022-12-03T03:05:22.669Z,102211.38
2022-12-03T03:07:52.317Z,102221.78
2022-12-03T03:10:24.536Z,102220.88
2022-12-03T03:12:55.342Z,102214.88
2022-12-03T03:15:24.776Z,102198.44
2022-12-03T03:17:53.407Z,102209.69
2022-12-03T03:20:21.922Z,102211.47
2022-12-03T03:22:50.041Z,102214.91
2022-12-03T03:25:22.493Z,102208.03
2022-12-03T03:27:52.696Z,102213.22
2022-12-03T03:30:20.839Z,102212.34
2022-12-03T03:32:51.527Z,102210.63
2022-12-03T03:35:19.889Z,102204.56
2022-12-03T03:37:47.988Z,102208.00
2022-12-03T03:40:16.061Z,102207.97
2022-12-03T03:42:44.153Z,102201.06
2022-12-03T03:45:13.940Z,102194.13
2022-12-03T03:47:42.949Z,102199.34
2022-12-03T03:50:13.422Z,102191.59
2022-12-03T03:52:42.715Z,102187.28
2022-12-03T03:55:11.988Z,102189.00
2022-12-03T03:57:40.858Z,102185.56
2022-12-03T04:00:11.225Z,102185.56
2022-12-03T04:02:42.225Z,102190.75
2022-12-03T04:05:16.561Z,102187.28
2022-12-03T04:07:44.777Z,102190.75
2022-12-03T04:10:32.150Z,102189.88
2022-12-03T04:13:00.753Z,102191.59
2022-12-03T04:15:31.512Z,102187.31
2022-12-03T04:18:18.602Z,102196.00
2022-12-03T04:20:46.802Z,102187.34
2022-12-03T04:23:13.987Z,102188.22
2022-12-03T04:25:59.565Z,102186.47
2022-12-03T04:28:44.708Z,102178.69
2022-12-03T04:31:29.997Z,102187.34
2022-12-03T04:34:16.937Z,102189.91
2022-12-03T04:36:45.131Z,102184.78
2022-12-03T04:39:13.277Z,102180.44
2022-12-03T04:41:41.463Z,102177.84
2022-12-03T04:44:26.938Z,102174.38
2022-12-03T04:46:55.109Z,102175.22
2022-12-03T04:49:24.945Z,102180.44
2022-12-03T04:51:53.041Z,102180.47
2022-12-03T04:54:21.060Z,102175.28
2022-12-03T04:56:49.147Z,102185.63
2022-12-03T04:59:17.575Z,102182.19
2022-12-03T05:01:46.344Z,102171.84
2022-12-03T05:04:15.421Z,102184.81
2022-12-03T05:06:45.102Z,102176.09
2022-12-03T05:09:14.067Z,102178.72
2022-12-03T05:11:43.007Z,102179.59
2022-12-03T05:14:11.614Z,102176.09
2022-12-03T05:16:39.989Z,102170.94
2022-12-03T05:19:10.642Z,102173.56
2022-12-03T05:21:37.794Z,102172.69
2022-12-03T05:24:07.910Z,102170.94
2022-12-03T05:26:35.999Z,102170.94
2022-12-03T05:29:21.961Z,102164.03
2022-12-03T05:31:50.008Z,102171.81
2022-12-03T05:34:18.184Z,102159.75
2022-12-03T05:36:46.432Z,102166.63
2022-12-03T05:39:15.844Z,102163.22
2022-12-03T05:42:09.933Z,102168.34
2022-12-03T05:44:38.078Z,102152.78
2022-12-03T05:47:06.237Z,102157.16
2022-12-03T05:49:34.363Z,102155.41
2022-12-03T05:52:02.452Z,102148.53
2022-12-03T05:54:31.911Z,102148.53
2022-12-03T05:57:00.260Z,102155.44
2022-12-03T05:59:28.388Z,102157.19
2022-12-03T06:01:56.499Z,102156.31
2022-12-03T06:04:24.658Z,102151.13
2022-12-03T06:06:52.680Z,102152.81
2022-12-03T06:09:20.838Z,102148.53
2022-12-03T06:11:53.586Z,102155.44
2022-12-03T06:14:21.696Z,102149.41
2022-12-03T06:16:49.818Z,102150.25
2022-12-03T06:19:17.954Z,102145.06
2022-12-03T06:21:49.066Z,102148.50
2022-12-03T06:24:17.273Z,102131.28
2022-12-03T06:26:45.373Z,102132.97
2022-12-03T06:29:14.773Z,102130.38
2022-12-03T06:31:43.006Z,102138.19
2022-12-03T06:34:11.272Z,102136.44
2022-12-03T06:36:39.563Z,102135.59
2022-12-03T06:39:07.604Z,102128.72
2022-12-03T06:41:35.772Z,102133.06
2022-12-03T06:44:03.859Z,102129.59
2022-12-03T06:46:33.485Z,102127.84
2022-12-03T06:49:01.757Z,102135.63
2022-12-03T06:51:29.917Z,102132.22
2022-12-03T06:53:58.381Z,102125.31
2022-12-03T06:56:31.110Z,102125.31
2022-12-03T06:59:02.916Z,102119.19
2022-12-03T07:01:31.210Z,102118.34
2022-12-03T07:04:00.726Z,102121.78
2022-12-03T07:06:28.835Z,102127.03
2022-12-03T07:08:57.124Z,102122.72
2022-12-03T07:11:40.155Z,102130.50
2022-12-03T07:14:11.231Z,102138.25
2022-12-03T07:16:40.030Z,102139.09
2022-12-03T07:19:10.064Z,102138.19
2022-12-03T07:21:38.122Z,102137.34
2022-12-03T07:24:06.724Z,102140.00
2022-12-03T07:26:34.799Z,102134.75
2022-12-03T07:29:02.967Z,102138.19
2022-12-03T07:31:31.165Z,102147.69
2022-12-03T07:33:59.261Z,102139.09
2022-12-03T07:36:28.734Z,102140.81
2022-12-03T07:38:56.871Z,102146.00
2022-12-03T07:41:24.923Z,102152.91
2022-12-03T07:43:53.263Z,102149.47
2022-12-03T07:46:21.435Z,102153.78
2022-12-03T07:48:49.498Z,102149.47
2022-12-03T07:51:17.710Z,102150.34
2022-12-03T07:53:47.310Z,102152.03
2022-12-03T07:56:15.979Z,102155.50
2022-12-03T07:58:44.193Z,102152.03
2022-12-03T08:01:12.347Z,102155.47
2022-12-03T08:03:43.004Z,102152.91
2022-12-03T08:06:11.331Z,102153.75
2022-12-03T08:08:39.369Z,102150.34
2022-12-03T08:11:14.862Z,102151.22
2022-12-03T08:13:42.995Z,102148.63
2022-12-03T08:16:17.928Z,102152.91
2022-12-03T08:18:47.033Z,102149.47
2022-12-03T08:21:18.533Z,102147.75
2022-12-03T08:23:46.684Z,102152.09
2022-12-03T08:26:23.238Z,102149.50
2022-12-03T08:28:51.797Z,102146.88
2022-12-03T08:31:27.989Z,102152.06
2022-12-03T08:34:17.289Z,102151.22
2022-12-03T08:36:46.204Z,102161.56
2022-12-03T08:39:30.668Z,102146.94
2022-12-03T08:42:29.913Z,102143.50
2022-12-03T08:45:00.774Z,102146.06
2022-12-03T08:47:30.743Z,102153.00
2022-12-03T08:50:07.445Z,102146.94
2022-12-03T08:52:36.027Z,102151.25
2022-12-03T08:55:29.985Z,102142.59
2022-12-03T08:58:00.084Z,102140.84
2022-12-03T09:00:28.145Z,102142.56
2022-12-03T09:03:02.248Z,102136.50
2022-12-03T09:05:33.453Z,102137.38
2022-12-03T09:08:02.004Z,102139.97
2022-12-03T09:10:30.174Z,102130.50
2022-12-03T09:12:59.856Z,102135.69
2022-12-03T09:15:28.444Z,102134.81
2022-12-03T09:17:56.509Z,102135.69
2022-12-03T09:20:24.599Z,102137.38
2022-12-03T09:22:52.684Z,102130.47
2022-12-03T09:25:20.929Z,102127.00
2022-12-03T09:27:49.810Z,102138.22
2022-12-03T09:30:19.608Z,102133.94
2022-12-03T09:32:47.699Z,102138.19
2022-12-03T09:35:15.758Z,102142.56
2022-12-03T09:37:43.871Z,102144.31
2022-12-03T09:40:13.718Z,102142.56
2022-12-03T09:42:42.467Z,102148.59
2022-12-03T09:45:14.371Z,102140.88
2022-12-03T09:47:47.315Z,102140.91
2022-12-03T09:50:17.416Z,102138.31
2022-12-03T09:52:46.946Z,102139.16
2022-12-03T09:55:19.783Z,102134.84
2022-12-03T09:57:47.871Z,102133.06
2022-12-03T10:00:18.804Z,102134.78
2022-12-03T10:02:49.073Z,102120.13
2022-12-03T10:05:20.355Z,102128.78
2022-12-03T10:07:49.369Z,102120.13
2022-12-03T10:10:19.556Z,102125.31
2022-12-03T10:12:48.021Z,102125.31
2022-12-03T10:15:18.052Z,102122.78
2022-12-03T10:17:48.966Z,102122.72
2022-12-03T10:20:19.392Z,102131.34
2022-12-03T10:22:48.812Z,102125.34
2022-12-03T10:25:19.217Z,102120.22
2022-12-03T10:27:57.959Z,102115.91
2022-12-03T10:30:28.544Z,102111.59
2022-12-03T10:33:02.729Z,102113.31
2022-12-03T10:35:39.154Z,102111.59
2022-12-03T10:38:08.790Z,102101.22
2022-12-03T10:40:38.493Z,102103.78
2022-12-03T10:43:21.604Z,102102.06
2022-12-03T10:45:51.247Z,102103.81
2022-12-03T10:48:25.435Z,102096.88
2022-12-03T10:50:55.523Z,102092.56
2022-12-03T10:53:28.196Z,102083.94
2022-12-03T10:55:59.669Z,102088.25
2022-12-03T10:58:30.276Z,102079.63
2022-12-03T11:01:00.137Z,102065.84
2022-12-03T11:03:31.285Z,102064.09
2022-12-03T11:06:02.433Z,102061.50
2022-12-03T11:08:35.771Z,102056.31
2022-12-03T11:11:05.997Z,102069.28
2022-12-03T11:13:52.373Z,102058.06
2022-12-03T11:16:59.840Z,102051.16
2022-12-03T11:22:45.236Z,102044.28
2022-12-03T11:25:45.998Z,102044.28
2022-12-03T11:28:38.796Z,102032.16
2022-12-03T11:31:12.475Z,102029.59
2022-12-03T11:33:41.540Z,102027.00
2022-12-03T11:36:16.750Z,102027.00
2022-12-03T11:38:58.178Z,102033.84
2022-12-03T11:41:29.103Z,102027.00
2022-12-03T11:44:31.279Z,102026.97
2022-12-03T11:47:14.109Z,102025.22
2022-12-03T11:49:50.037Z,102018.34
2022-12-03T11:52:30.674Z,102020.09
2022-12-03T11:55:04.407Z,102014.88
2022-12-03T11:57:38.782Z,102024.38
2022-12-03T12:00:18.691Z,102004.59
2022-12-03T12:02:47.931Z,102014.94
2022-12-03T12:05:32.511Z,102007.19
2022-12-03T12:08:04.434Z,102005.47
2022-12-03T12:10:46.176Z,101996.84
2022-12-03T12:13:42.541Z,102002.06
2022-12-03T12:16:10.949Z,102008.91
2022-12-03T12:18:44.040Z,102001.97
2022-12-03T12:21:40.988Z,101998.56
2022-12-03T12:24:38.250Z,101996.84
2022-12-03T12:27:10.268Z,101993.34
2022-12-03T12:29:40.166Z,101989.84
2022-12-03T12:32:15.855Z,101992.47
2022-12-03T12:34:46.467Z,101989.06
2022-12-03T12:37:18.763Z,101983.06
2022-12-03T12:39:46.903Z,101977.03
2022-12-03T12:42:39.663Z,101970.09
2022-12-03T12:45:16.871Z,101970.91
2022-12-03T12:47:50.458Z,101968.34
2022-12-03T12:50:20.398Z,101967.47
2022-12-03T12:52:54.791Z,101962.34
2022-12-03T12:55:24.461Z,101963.22
2022-12-03T12:57:55.027Z,101962.38
2022-12-03T13:00:24.616Z,101954.56
2022-12-03T13:02:56.460Z,101958.91
2022-12-03T13:05:27.685Z,101952.84
2022-12-03T13:07:56.165Z,101949.38
2022-12-03T13:10:39.540Z,101950.25
2022-12-03T13:13:21.657Z,101952.84
2022-12-03T13:15:53.654Z,101952.84
2022-12-03T13:18:25.908Z,101953.72
2022-12-03T13:20:54.704Z,101952.81
2022-12-03T13:23:32.746Z,101947.66
2022-12-03T13:26:19.369Z,101946.81
2022-12-03T13:28:56.833Z,101952.88
2022-12-03T13:31:28.331Z,101940.81
2022-12-03T13:33:57.953Z,101945.94
2022-12-03T13:36:37.804Z,101939.84
2022-12-03T13:39:20.273Z,101938.09
2022-12-03T13:42:06.211Z,101943.25
2022-12-03T13:44:38.466Z,101946.72
2022-12-03T13:47:14.650Z,101938.09
2022-12-03T13:49:50.447Z,101933.84
2022-12-03T13:52:22.389Z,101933.88
2022-12-03T13:54:53.371Z,101928.75
2022-12-03T13:57:21.473Z,101929.53
2022-12-03T13:59:51.061Z,101926.91
2022-12-03T14:02:19.334Z,101931.28
2022-12-03T14:04:47.776Z,101926.09
2022-12-03T14:07:16.026Z,101917.41
2022-12-03T14:09:44.142Z,101915.78
2022-12-03T14:12:26.993Z,101909.72
2022-12-03T14:14:57.221Z,101918.31
2022-12-03T14:17:25.322Z,101921.75
2022-12-03T14:19:53.736Z,101917.50
2022-12-03T14:22:25.360Z,101918.31
2022-12-03T14:24:54.035Z,101909.66
2022-12-03T14:27:23.254Z,101919.97
2022-12-03T14:29:52.232Z,101921.72
2022-12-03T14:32:22.066Z,101922.56
2022-12-03T14:34:50.283Z,101924.31
2022-12-03T14:37:18.668Z,101920.91
2022-12-03T14:39:46.768Z,101914.88
2022-12-03T14:42:14.884Z,101914.06
2022-12-03T14:44:44.246Z,101916.69
2022-12-03T14:47:13.128Z,101915.00
2022-12-03T14:49:42.489Z,101908.97
2022-12-03T14:52:12.470Z,101909.75
2022-12-03T14:54:42.520Z,101913.19
2022-12-03T14:57:12.050Z,101908.91
2022-12-03T14:59:40.315Z,101918.41
2022-12-03T15:02:08.917Z,101917.56
2022-12-03T15:04:37.280Z,101910.69
2022-12-03T15:07:06.963Z,101909.81
2022-12-03T15:09:35.266Z,101911.56
2022-12-03T15:12:03.320Z,101921.09
2022-12-03T15:14:31.405Z,101910.72
2022-12-03T15:16:59.549Z,101908.97
2022-12-03T15:19:27.743Z,101911.56
2022-12-03T15:21:55.812Z,101913.31
2022-12-03T15:24:28.788Z,101909.00
2022-12-03T15:26:56.877Z,101906.41
2022-12-03T15:29:24.961Z,101909.88
2022-12-03T15:31:53.079Z,101909.00
2022-12-03T15:34:23.028Z,101908.13
2022-12-03T15:36:51.664Z,101908.06
2022-12-03T15:39:19.727Z,101906.38
2022-12-03T15:41:49.652Z,101914.22
2022-12-03T15:44:17.714Z,101914.19
2022-12-03T15:46:45.840Z,101915.06
2022-12-03T15:49:13.957Z,101918.47
2022-12-03T15:51:42.104Z,101917.63
2022-12-03T15:54:12.479Z,101918.47
2022-12-03T15:56:40.636Z,101916.72
2022-12-03T15:59:10.105Z,101915.00
2022-12-03T16:01:38.199Z,101919.31
2022-12-03T16:04:06.573Z,101919.34
2022-12-03T16:06:34.732Z,101915.03
2022-12-03T16:09:02.813Z,101913.34
2022-12-03T16:11:30.989Z,101911.59
2022-12-03T16:13:59.131Z,101910.78
2022-12-03T16:16:28.614Z,101912.50
2022-12-03T16:18:56.697Z,101908.22
2022-12-03T16:21:27.114Z,101911.63
2022-12-03T16:23:57.066Z,101909.97
2022-12-03T16:26:25.449Z,101907.31
2022-12-03T16:28:53.792Z,101919.38
2022-12-03T16:31:22.016Z,101918.53
2022-12-03T16:33:51.504Z,101909.91
2022-12-03T16:36:19.591Z,101909.94
2022-12-03T16:38:47.652Z,101904.75
2022-12-03T16:41:15.802Z,101910.81
2022-12-03T16:43:48.425Z,101909.91
2022-12-03T16:46:26.171Z,101902.19
2022-12-03T16:48:57.961Z,101901.28
2022-12-03T16:51:27.028Z,101902.13
2022-12-03T16:53:55.534Z,101901.31
2022-12-03T16:56:23.640Z,101897.84
2022-12-03T16:58:51.661Z,101895.28
2022-12-03T17:01:19.846Z,101897.88
2022-12-03T17:03:47.917Z,101894.38
2022-12-03T17:06:17.393Z,101902.97
2022-12-03T17:08:49.366Z,101899.59
2022-12-03T17:11:18.572Z,101900.47
2022-12-03T17:13:47.128Z,101893.53
2022-12-03T17:16:15.582Z,101898.72
2022-12-03T17:18:43.827Z,101900.44
2022-12-03T17:21:12.109Z,101897.91
2022-12-03T17:23:41.542Z,101902.19
2022-12-03T17:26:09.592Z,101896.13
2022-12-03T17:28:37.613Z,101897.00
2022-12-03T17:31:05.914Z,101897.00
2022-12-03T17:33:34.015Z,101903.94
2022-12-03T17:36:02.243Z,101895.34
2022-12-03T17:38:34.094Z,101892.75
2022-12-03T17:41:08.488Z,101895.34
2022-12-03T17:43:36.550Z,101889.25
2022-12-03T17:46:06.701Z,101892.66
2022-12-03T17:48:35.418Z,101884.94
2022-12-03T17:51:03.851Z,101881.47
2022-12-03T17:53:31.900Z,101878.09
2022-12-03T17:56:00.078Z,101878.09
2022-12-03T17:58:29.818Z,101878.97
2022-12-03T18:01:02.504Z,101878.94
2022-12-03T18:03:31.581Z,101881.50
2022-12-03T18:05:59.787Z,101873.78
2022-12-03T18:08:27.851Z,101876.38
2022-12-03T18:10:55.916Z,101877.22
2022-12-03T18:13:23.996Z,101873.81
2022-12-03T18:15:53.534Z,101874.66
2022-12-03T18:18:21.693Z,101877.22
2022-12-03T18:20:49.736Z,101874.66
2022-12-03T18:23:21.210Z,101870.38
2022-12-03T18:25:49.281Z,101873.81
2022-12-03T18:28:17.346Z,101872.94
2022-12-03T18:30:51.988Z,101872.09
2022-12-03T18:33:23.423Z,101868.66
2022-12-03T18:35:54.255Z,101866.84
2022-12-03T18:38:25.192Z,101872.09
2022-12-03T18:40:56.671Z,101871.22
2022-12-03T18:43:26.335Z,101877.25
2022-12-03T18:45:54.977Z,101870.31
2022-12-03T18:48:24.516Z,101869.44
2022-12-03T18:50:52.595Z,101867.72
2022-12-03T18:53:20.873Z,101863.41
2022-12-03T18:55:49.443Z,101859.94
2022-12-03T18:58:17.449Z,101858.25
2022-12-03T19:00:45.716Z,101862.59
2022-12-03T19:03:13.771Z,101859.09
2022-12-03T19:05:43.293Z,101854.81
2022-12-03T19:08:14.968Z,101853.88
2022-12-03T19:10:44.281Z,101858.22
2022-12-03T19:13:12.813Z,101853.91
2022-12-03T19:15:40.911Z,101847.81
2022-12-03T19:18:12.055Z,101847.88
2022-12-03T19:20:42.912Z,101855.66
2022-12-03T19:23:11.077Z,101862.56
2022-12-03T19:25:39.125Z,101865.13
2022-12-03T19:28:07.307Z,101867.78
2022-12-03T19:30:35.369Z,101866.00
2022-12-03T19:33:03.562Z,101869.50
2022-12-03T19:35:32.747Z,101865.16
2022-12-03T19:38:02.546Z,101853.91
2022-12-03T19:40:32.179Z,101858.28
2022-12-03T19:43:00.311Z,101848.84
2022-12-03T19:45:28.435Z,101850.56
2022-12-03T19:47:56.576Z,101848.84
2022-12-03T19:50:24.616Z,101850.56
2022-12-03T19:52:52.707Z,101855.72
2022-12-03T19:55:24.551Z,101847.97
2022-12-03T19:57:52.730Z,101844.50
2022-12-03T20:00:21.152Z,101835.88
2022-12-03T20:02:50.868Z,101835.91
2022-12-03T20:05:19.008Z,101837.66
2022-12-03T20:07:47.114Z,101831.66
2022-12-03T20:10:15.243Z,101838.53
2022-12-03T20:12:44.761Z,101839.41
2022-12-03T20:15:14.331Z,101839.38
2022-12-03T20:17:42.547Z,101837.66
2022-12-03T20:20:11.336Z,101835.91
2022-12-03T20:22:39.441Z,101829.00
2022-12-03T20:25:08.736Z,101820.34
2022-12-03T20:27:37.053Z,101831.59
2022-12-03T20:30:08.026Z,101835.03
2022-12-03T20:32:40.720Z,101838.47
2022-12-03T20:35:13.073Z,101835.97
2022-12-03T20:37:41.482Z,101839.41
2022-12-03T20:40:10.588Z,101833.34
2022-12-03T20:42:38.747Z,101817.88
2022-12-03T20:45:10.055Z,101822.19
2022-12-03T20:47:38.079Z,101828.22
2022-12-03T20:50:07.375Z,101820.44
2022-12-03T20:52:35.452Z,101817.88
2022-12-03T20:55:03.722Z,101821.31
2022-12-03T20:57:31.916Z,101815.25
2022-12-03T20:59:59.979Z,101822.16
2022-12-03T21:02:29.484Z,101815.28
2022-12-03T21:04:57.625Z,101815.28
2022-12-03T21:07:25.808Z,101816.16
2022-12-03T21:09:55.378Z,101818.75
2022-12-03T21:12:23.893Z,101810.16
2022-12-03T21:14:51.986Z,101808.44
2022-12-03T21:17:20.744Z,101808.41
2022-12-03T21:19:50.458Z,101801.53
2022-12-03T21:22:19.458Z,101808.41
2022-12-03T21:24:47.835Z,101802.41
2022-12-03T21:27:19.988Z,101811.00
2022-12-03T21:29:49.830Z,101804.97
2022-12-03T21:32:20.185Z,101810.16
2022-12-03T21:34:48.367Z,101811.06
2022-12-03T21:37:17.899Z,101810.16
2022-12-03T21:39:46.204Z,101805.88
2022-12-03T21:42:34.597Z,101811.00
2022-12-03T21:45:02.690Z,101806.72
2022-12-03T21:47:36.556Z,101811.88
2022-12-03T21:50:06.532Z,101809.31
2022-12-03T21:52:36.623Z,101801.53
2022-12-03T21:55:05.227Z,101816.22
2022-12-03T21:57:35.690Z,101810.16
2022-12-03T22:00:05.500Z,101806.69
2022-12-03T22:02:33.849Z,101805.00
2022-12-03T22:05:02.123Z,101801.56
2022-12-03T22:07:33.179Z,101803.25
2022-12-03T22:10:02.748Z,101808.47
2022-12-03T22:12:30.827Z,101804.13
2022-12-03T22:14:59.177Z,101806.72
2022-12-03T22:17:28.310Z,101794.63
2022-12-03T22:19:56.831Z,101792.06
2022-12-03T22:22:25.181Z,101795.50
2022-12-03T22:24:56.321Z,101798.09
2022-12-03T22:27:25.985Z,101798.09
2022-12-03T22:29:54.221Z,101790.34
2022-12-03T22:32:22.499Z,101787.75
2022-12-03T22:34:50.780Z,101786.03
2022-12-03T22:37:18.895Z,101791.19
2022-12-03T22:39:47.102Z,101788.63
2022-12-03T22:42:15.380Z,101774.81
2022-12-03T22:44:44.821Z,101782.56
2022-12-03T22:47:12.876Z,101772.22
2022-12-03T22:49:40.954Z,101774.81
2022-12-03T22:52:09.287Z,101781.69
2022-12-03T22:54:37.398Z,101780.81
2022-12-03T22:57:05.414Z,101779.94
2022-12-03T22:59:33.672Z,101777.38
2022-12-03T23:02:03.284Z,101775.63
2022-12-03T23:04:31.320Z,101777.38
2022-12-03T23:06:59.472Z,101770.47
2022-12-03T23:09:27.973Z,101777.38
2022-12-03T23:11:55.963Z,101776.50
2022-12-03T23:14:24.132Z,101770.47
2022-12-03T23:16:52.151Z,101775.63
2022-12-03T23:19:21.821Z,101775.63
2022-12-03T23:21:49.930Z,101773.00
2022-12-03T23:24:18.049Z,101778.22
2022-12-03T23:26:46.085Z,101779.06
2022-12-03T23:29:14.275Z,101773.06
2022-12-03T23:31:42.288Z,101772.19
2022-12-03T23:34:10.464Z,101769.59
2022-12-03T23:36:39.937Z,101773.00
2022-12-03T23:39:07.997Z,101770.47
2022-12-03T23:41:36.171Z,101767.00
2022-12-03T23:44:07.065Z,101761.88
2022-12-03T23:46:35.364Z,101767.03
2022-12-03T23:49:04.227Z,101762.72
2022-12-03T23:51:33.069Z,101760.13
2022-12-03T23:54:03.512Z,101761.88
2022-12-03T23:56:33.541Z,101758.38
2022-12-03T23:59:02.103Z,101764.34
